createdAt,value
2022-07-26T00:00:57.865Z,94.08
2022-07-26T00:02:01.941Z,94.12
2022-07-26T00:03:05.771Z,93.85
2022-07-26T00:04:09.153Z,93.84
2022-07-26T00:05:11.722Z,93.71
2022-07-26T00:06:15.065Z,93.66
2022-07-26T00:07:18.224Z,93.24
2022-07-26T00:08:20.336Z,92.89
2022-07-26T00:09:24.524Z,93.05
2022-07-26T00:10:26.873Z,92.91
2022-07-26T00:11:33.620Z,92.82
2022-07-26T00:12:36.115Z,92.85
2022-07-26T00:13:39.566Z,92.67
2022-07-26T00:14:42.854Z,92.67
2022-07-26T00:15:46.057Z,92.05
2022-07-26T00:16:50.326Z,91.90
2022-07-26T00:17:52.577Z,91.81
2022-07-26T00:18:57.793Z,91.94
2022-07-26T00:20:00.256Z,91.63
2022-07-26T00:21:03.342Z,91.52
2022-07-26T00:22:24.070Z,91.32
2022-07-26T00:23:27.320Z,91.00
2022-07-26T00:24:35.100Z,91.44
2022-07-26T00:25:38.573Z,91.13
2022-07-26T00:26:40.675Z,91.00
2022-07-26T00:27:43.735Z,91.29
2022-07-26T00:28:47.640Z,91.01
2022-07-26T00:29:50.924Z,90.78
2022-07-26T00:30:53.103Z,90.61
2022-07-26T00:31:56.788Z,90.76
2022-07-26T00:32:59.338Z,90.59
2022-07-26T00:34:03.856Z,90.57
2022-07-26T00:35:07.143Z,90.46
2022-07-26T00:36:10.582Z,90.56
2022-07-26T00:37:15.952Z,90.59
2022-07-26T00:38:22.955Z,90.64
2022-07-26T00:39:25.349Z,90.50
2022-07-26T00:40:28.776Z,90.36
2022-07-26T00:41:31.939Z,90.40
2022-07-26T00:42:35.982Z,90.26
2022-07-26T00:43:38.566Z,89.92
2022-07-26T00:44:46.812Z,90.23
2022-07-26T00:45:50.663Z,90.04
2022-07-26T00:46:54.297Z,90.15
2022-07-26T00:47:56.476Z,90.14
2022-07-26T00:49:00.387Z,89.85
2022-07-26T00:50:04.856Z,90.17
2022-07-26T00:51:08.034Z,90.17
2022-07-26T00:52:11.571Z,89.90
2022-07-26T00:53:15.520Z,90.13
2022-07-26T00:54:18.129Z,89.96
2022-07-26T00:55:21.962Z,90.03
2022-07-26T00:56:24.889Z,90.08
2022-07-26T00:57:28.321Z,89.89
2022-07-26T00:58:30.663Z,90.43
2022-07-26T00:59:34.543Z,90.23
2022-07-26T01:00:37.945Z,90.50
2022-07-26T01:01:42.239Z,90.31
2022-07-26T01:02:45.606Z,90.23
2022-07-26T01:03:53.493Z,90.07
2022-07-26T01:04:58.434Z,90.27
2022-07-26T01:06:03.417Z,90.28
2022-07-26T01:07:14.847Z,90.37
2022-07-26T01:08:18.693Z,90.50
2022-07-26T01:09:21.372Z,90.48
2022-07-26T01:10:25.270Z,90.52
2022-07-26T01:11:28.117Z,90.24
2022-07-26T01:12:31.403Z,90.42
2022-07-26T01:13:35.522Z,90.62
2022-07-26T01:14:42.977Z,90.23
2022-07-26T01:15:45.056Z,90.60
2022-07-26T01:16:48.264Z,90.49
2022-07-26T01:17:50.514Z,90.68
2022-07-26T01:18:55.817Z,90.45
2022-07-26T01:19:58.513Z,90.43
2022-07-26T01:21:13.452Z,90.88
2022-07-26T01:22:17.805Z,90.58
2022-07-26T01:23:22.433Z,91.03
2022-07-26T01:24:24.585Z,90.96
2022-07-26T01:25:31.647Z,90.90
2022-07-26T01:26:34.284Z,91.31
2022-07-26T01:27:42.576Z,91.28
2022-07-26T01:28:46.830Z,91.22
2022-07-26T01:29:54.077Z,91.54
2022-07-26T01:30:56.639Z,91.26
2022-07-26T01:32:00.025Z,91.44
2022-07-26T01:33:02.447Z,91.11
2022-07-26T01:34:11.131Z,91.59
2022-07-26T01:35:16.882Z,91.58
2022-07-26T01:36:20.546Z,91.60
2022-07-26T01:37:25.044Z,91.84
2022-07-26T01:38:28.033Z,91.50
2022-07-26T01:39:31.328Z,91.57
2022-07-26T01:40:34.235Z,91.87
2022-07-26T01:41:38.565Z,92.15
2022-07-26T01:42:41.608Z,92.41
2022-07-26T01:43:45.231Z,92.06
2022-07-26T01:44:48.398Z,92.50
2022-07-26T01:45:52.779Z,92.38
2022-07-26T01:46:55.239Z,92.61
2022-07-26T01:47:58.754Z,92.73
2022-07-26T01:49:02.105Z,92.59
2022-07-26T01:50:06.706Z,92.92
2022-07-26T01:51:08.917Z,93.01
2022-07-26T01:52:12.390Z,93.03
2022-07-26T01:53:16.213Z,93.20
2022-07-26T01:54:22.526Z,93.12
2022-07-26T01:55:27.541Z,93.22
2022-07-26T01:56:31.096Z,93.30
2022-07-26T01:57:33.150Z,93.46
2022-07-26T01:58:36.236Z,93.42
2022-07-26T01:59:38.329Z,93.44
2022-07-26T02:00:41.893Z,93.25
2022-07-26T02:01:44.315Z,93.53
2022-07-26T02:02:47.724Z,93.55
2022-07-26T02:03:50.848Z,93.49
2022-07-26T02:04:59.863Z,93.70
2022-07-26T02:06:03.727Z,93.78
2022-07-26T02:07:13.007Z,93.76
2022-07-26T02:08:18.140Z,93.66
2022-07-26T02:09:24.758Z,93.61
2022-07-26T02:10:50.789Z,93.32
2022-07-26T02:11:53.168Z,93.37
2022-07-26T02:12:56.505Z,93.60
2022-07-26T02:13:58.638Z,93.75
2022-07-26T02:15:02.331Z,93.60
2022-07-26T02:16:07.047Z,93.67
2022-07-26T02:17:10.719Z,93.37
2022-07-26T02:18:13.621Z,93.91
2022-07-26T02:19:17.215Z,93.59
2022-07-26T02:20:19.506Z,93.79
2022-07-26T02:21:22.880Z,93.63
2022-07-26T02:22:25.300Z,93.87
2022-07-26T02:23:30.771Z,93.56
2022-07-26T02:24:33.843Z,93.91
2022-07-26T02:25:36.968Z,93.60
2022-07-26T02:26:38.994Z,93.86
2022-07-26T02:27:43.347Z,94.02
2022-07-26T02:28:46.269Z,94.01
2022-07-26T02:29:49.765Z,94.02
2022-07-26T02:30:52.197Z,94.12
2022-07-26T02:31:56.074Z,94.19
2022-07-26T02:32:58.076Z,93.69
2022-07-26T02:34:01.451Z,94.15
2022-07-26T02:35:04.542Z,94.06
2022-07-26T02:36:08.984Z,93.80
2022-07-26T02:37:13.521Z,93.77
2022-07-26T02:38:20.266Z,93.70
2022-07-26T02:39:28.152Z,94.14
2022-07-26T02:40:31.485Z,93.87
2022-07-26T02:41:33.610Z,94.09
2022-07-26T02:42:36.813Z,94.44
2022-07-26T02:43:39.351Z,94.52
2022-07-26T02:44:43.115Z,94.42
2022-07-26T02:46:01.711Z,94.34
2022-07-26T02:47:05.941Z,94.51
2022-07-26T02:48:08.794Z,94.34
2022-07-26T02:49:12.994Z,94.34
2022-07-26T02:50:17.610Z,94.14
2022-07-26T02:51:21.151Z,94.24
2022-07-26T02:52:23.430Z,94.07
2022-07-26T02:53:26.639Z,93.95
2022-07-26T02:54:30.202Z,93.95
2022-07-26T02:55:33.502Z,94.12
2022-07-26T02:56:35.827Z,93.91
2022-07-26T02:57:45.413Z,94.25
2022-07-26T02:58:49.217Z,94.24
2022-07-26T02:59:52.630Z,94.17
2022-07-26T03:00:57.134Z,94.27
2022-07-26T03:01:59.672Z,94.56
2022-07-26T03:03:03.304Z,94.41
2022-07-26T03:04:07.907Z,94.09
2022-07-26T03:05:11.731Z,94.32
2022-07-26T03:06:13.869Z,94.58
2022-07-26T03:07:16.936Z,94.60
2022-07-26T03:08:20.181Z,94.37
2022-07-26T03:09:22.253Z,94.14
2022-07-26T03:10:26.771Z,94.13
2022-07-26T03:11:29.032Z,94.10
2022-07-26T03:12:32.641Z,94.02
2022-07-26T03:13:34.792Z,94.29
2022-07-26T03:14:37.905Z,94.02
2022-07-26T03:15:40.322Z,93.98
2022-07-26T03:16:43.728Z,93.99
2022-07-26T03:17:46.152Z,93.67
2022-07-26T03:18:49.914Z,93.73
2022-07-26T03:19:52.176Z,93.90
2022-07-26T03:20:55.405Z,93.90
2022-07-26T03:21:58.094Z,93.78
2022-07-26T03:23:01.443Z,93.69
2022-07-26T03:24:03.973Z,93.87
2022-07-26T03:25:07.664Z,93.82
2022-07-26T03:26:11.238Z,93.77
2022-07-26T03:27:14.285Z,93.86
2022-07-26T03:28:19.477Z,93.80
2022-07-26T03:29:23.828Z,93.68
2022-07-26T03:30:26.498Z,93.86
2022-07-26T03:31:29.900Z,93.86
2022-07-26T03:32:31.988Z,93.65
2022-07-26T03:33:35.141Z,93.96
2022-07-26T03:34:37.424Z,93.76
2022-07-26T03:35:40.467Z,93.57
2022-07-26T03:36:44.086Z,93.95
2022-07-26T03:37:47.356Z,93.78
2022-07-26T03:38:49.440Z,93.69
2022-07-26T03:39:52.766Z,93.64
2022-07-26T03:40:54.867Z,93.43
2022-07-26T03:41:59.463Z,93.52
2022-07-26T03:43:01.574Z,93.62
2022-07-26T03:44:06.701Z,93.79
2022-07-26T03:45:09.585Z,93.36
2022-07-26T03:46:12.650Z,93.70
2022-07-26T03:47:14.903Z,93.49
2022-07-26T03:48:17.980Z,93.49
2022-07-26T03:49:20.215Z,93.22
2022-07-26T03:50:23.398Z,93.50
2022-07-26T03:51:25.487Z,93.37
2022-07-26T03:52:28.604Z,93.35
2022-07-26T03:53:30.799Z,93.00
2022-07-26T03:54:33.953Z,93.01
2022-07-26T03:55:54.682Z,93.22
2022-07-26T03:56:58.069Z,92.71
2022-07-26T03:58:00.127Z,92.98
2022-07-26T03:59:05.976Z,93.23
2022-07-26T04:00:10.574Z,92.77
2022-07-26T04:01:12.822Z,92.84
2022-07-26T04:02:15.963Z,92.76
2022-07-26T04:03:19.412Z,92.90
2022-07-26T04:04:25.129Z,92.88
2022-07-26T04:05:28.041Z,92.95
2022-07-26T04:06:31.596Z,92.62
2022-07-26T04:07:33.720Z,93.01
2022-07-26T04:08:36.838Z,92.82
2022-07-26T04:09:39.906Z,92.78
2022-07-26T04:10:45.841Z,92.59
2022-07-26T04:11:49.172Z,92.50
2022-07-26T04:12:53.034Z,92.86
2022-07-26T04:13:56.086Z,92.59
2022-07-26T04:14:58.180Z,93.03
2022-07-26T04:16:03.530Z,92.88
2022-07-26T04:17:05.606Z,93.03
2022-07-26T04:18:08.820Z,93.11
2022-07-26T04:19:11.005Z,92.86
2022-07-26T04:20:14.212Z,92.99
2022-07-26T04:21:16.397Z,92.95
2022-07-26T04:22:19.548Z,92.80
2022-07-26T04:23:21.870Z,93.06
2022-07-26T04:24:25.549Z,93.04
2022-07-26T04:25:27.814Z,93.02
2022-07-26T04:26:43.630Z,93.21
2022-07-26T04:27:45.762Z,93.02
2022-07-26T04:28:50.232Z,93.09
2022-07-26T04:29:52.309Z,93.37
2022-07-26T04:30:55.453Z,92.89
2022-07-26T04:31:57.562Z,92.92
2022-07-26T04:33:00.556Z,93.28
2022-07-26T04:34:02.659Z,93.18
2022-07-26T04:35:06.428Z,93.24
2022-07-26T04:36:09.163Z,93.05
2022-07-26T04:37:12.218Z,93.09
2022-07-26T04:38:14.372Z,93.25
2022-07-26T04:39:17.389Z,92.78
2022-07-26T04:40:21.677Z,92.77
2022-07-26T04:41:26.971Z,92.40
2022-07-26T04:42:29.071Z,92.52
2022-07-26T04:43:32.288Z,92.72
2022-07-26T04:44:35.776Z,92.96
2022-07-26T04:45:39.216Z,93.01
2022-07-26T04:46:45.209Z,93.37
2022-07-26T04:47:50.753Z,93.33
2022-07-26T04:48:52.991Z,93.58
2022-07-26T04:49:56.201Z,93.78
2022-07-26T04:51:00.565Z,94.13
2022-07-26T04:52:02.672Z,94.12
2022-07-26T04:53:05.798Z,94.50
2022-07-26T04:54:08.267Z,94.73
2022-07-26T04:55:11.818Z,94.96
2022-07-26T04:56:14.503Z,95.00
2022-07-26T04:57:17.638Z,95.30
2022-07-26T04:58:20.766Z,95.41
2022-07-26T04:59:22.825Z,95.96
2022-07-26T05:00:27.437Z,96.23
2022-07-26T05:01:29.651Z,96.31
2022-07-26T05:02:32.924Z,96.51
2022-07-26T05:03:36.201Z,96.60
2022-07-26T05:04:38.208Z,96.57
2022-07-26T05:05:41.375Z,96.50
2022-07-26T05:06:43.545Z,96.54
2022-07-26T05:07:48.849Z,97.30
2022-07-26T05:08:50.854Z,97.28
2022-07-26T05:09:54.044Z,97.41
2022-07-26T05:10:57.663Z,97.24
2022-07-26T05:12:00.096Z,97.85
2022-07-26T05:13:04.017Z,97.96
2022-07-26T05:14:06.490Z,98.05
2022-07-26T05:15:13.977Z,97.94
2022-07-26T05:16:17.988Z,98.46
2022-07-26T05:17:22.167Z,98.57
2022-07-26T05:18:31.617Z,98.88
2022-07-26T05:19:34.162Z,98.53
2022-07-26T05:20:38.429Z,98.95
2022-07-26T05:21:40.604Z,99.06
2022-07-26T05:22:44.005Z,99.31
2022-07-26T05:23:46.068Z,98.94
2022-07-26T05:24:49.146Z,99.19
2022-07-26T05:25:51.288Z,99.44
2022-07-26T05:26:58.338Z,99.48
2022-07-26T05:28:02.622Z,99.52
2022-07-26T05:29:04.985Z,99.81
2022-07-26T05:30:09.645Z,99.70
2022-07-26T05:31:11.878Z,99.88
2022-07-26T05:32:16.736Z,100.00
2022-07-26T05:33:19.956Z,100.00
2022-07-26T05:34:24.420Z,99.88
2022-07-26T05:35:28.180Z,99.93
2022-07-26T05:36:30.645Z,100.00
2022-07-26T05:37:33.820Z,99.90
2022-07-26T05:38:35.909Z,100.00
2022-07-26T05:39:39.047Z,100.00
2022-07-26T05:40:41.190Z,100.00
2022-07-26T05:41:44.287Z,100.00
2022-07-26T05:42:46.750Z,100.00
2022-07-26T05:43:50.081Z,100.00
2022-07-26T05:44:52.622Z,100.00
2022-07-26T05:45:57.746Z,100.00
2022-07-26T05:47:00.249Z,100.00
2022-07-26T05:48:04.970Z,100.00
2022-07-26T05:49:07.877Z,100.00
2022-07-26T05:50:11.541Z,100.00
2022-07-26T05:51:13.575Z,100.00
2022-07-26T05:52:16.652Z,100.00
2022-07-26T05:53:18.756Z,100.00
2022-07-26T05:54:22.864Z,100.00
2022-07-26T05:55:25.082Z,100.00
2022-07-26T05:56:28.169Z,100.00
2022-07-26T05:57:30.985Z,100.00
2022-07-26T05:58:34.056Z,100.00
2022-07-26T05:59:36.140Z,100.00
2022-07-26T06:00:39.217Z,100.00
2022-07-26T06:01:41.980Z,100.00
2022-07-26T06:02:45.405Z,100.00
2022-07-26T06:03:49.035Z,100.00
2022-07-26T06:04:52.412Z,100.00
2022-07-26T06:05:56.834Z,100.00
2022-07-26T06:06:59.948Z,100.00
2022-07-26T06:08:01.931Z,100.00
2022-07-26T06:09:05.483Z,100.00
2022-07-26T06:10:08.397Z,100.00
2022-07-26T06:11:11.429Z,100.00
2022-07-26T06:12:14.514Z,100.00
2022-07-26T06:13:16.814Z,100.00
2022-07-26T06:14:20.061Z,100.00
2022-07-26T06:15:23.229Z,100.00
2022-07-26T06:16:25.329Z,100.00
2022-07-26T06:17:30.242Z,100.00
2022-07-26T06:18:32.744Z,100.00
2022-07-26T06:19:37.367Z,100.00
2022-07-26T06:20:39.994Z,100.00
2022-07-26T06:21:43.841Z,100.00
2022-07-26T06:22:45.894Z,100.00
2022-07-26T06:23:49.400Z,100.00
2022-07-26T06:24:51.595Z,100.00
2022-07-26T06:25:54.821Z,100.00
2022-07-26T06:27:04.932Z,100.00
2022-07-26T06:28:11.262Z,100.00
2022-07-26T06:29:13.666Z,100.00
2022-07-26T06:30:16.724Z,100.00
2022-07-26T06:31:18.934Z,100.00
2022-07-26T06:32:22.061Z,100.00
2022-07-26T06:33:24.133Z,100.00
2022-07-26T06:34:27.228Z,100.00
2022-07-26T06:35:32.101Z,100.00
2022-07-26T06:36:35.424Z,100.00
2022-07-26T06:37:38.030Z,100.00
2022-07-26T06:38:41.318Z,100.00
2022-07-26T06:39:46.362Z,100.00
2022-07-26T06:40:48.469Z,100.00
2022-07-26T06:41:51.590Z,100.00
2022-07-26T06:43:04.079Z,100.00
2022-07-26T06:44:09.154Z,99.85
2022-07-26T06:45:13.254Z,99.89
2022-07-26T06:46:17.013Z,99.33
2022-07-26T06:47:19.174Z,98.97
2022-07-26T06:48:22.318Z,99.15
2022-07-26T06:49:25.901Z,99.04
2022-07-26T06:50:28.249Z,98.59
2022-07-26T06:51:32.806Z,97.37
2022-07-26T06:52:34.955Z,97.44
2022-07-26T06:53:38.041Z,96.75
2022-07-26T06:54:40.096Z,96.98
2022-07-26T06:55:43.643Z,96.86
2022-07-26T06:56:48.000Z,96.82
2022-07-26T06:57:50.646Z,96.75
2022-07-26T06:58:55.230Z,96.51
2022-07-26T06:59:57.621Z,96.31
2022-07-26T07:01:00.749Z,96.61
2022-07-26T07:02:02.975Z,96.66
2022-07-26T07:03:05.996Z,95.99
2022-07-26T07:04:09.077Z,95.66
2022-07-26T07:05:13.007Z,95.49
2022-07-26T07:06:16.211Z,95.64
2022-07-26T07:07:20.787Z,95.33
2022-07-26T07:08:24.955Z,95.60
2022-07-26T07:09:27.291Z,95.71
2022-07-26T07:10:30.998Z,95.54
2022-07-26T07:11:33.017Z,95.73
2022-07-26T07:12:36.170Z,95.85
2022-07-26T07:13:39.303Z,95.24
2022-07-26T07:14:41.830Z,95.29
2022-07-26T07:15:44.851Z,95.21
2022-07-26T07:16:48.086Z,95.26
2022-07-26T07:17:51.660Z,94.83
2022-07-26T07:18:54.766Z,94.83
2022-07-26T07:19:56.863Z,94.87
2022-07-26T07:20:59.907Z,94.67
2022-07-26T07:22:02.147Z,94.57
2022-07-26T07:23:06.541Z,93.94
2022-07-26T07:24:09.636Z,93.80
2022-07-26T07:25:14.607Z,93.52
2022-07-26T07:26:16.919Z,92.61
2022-07-26T07:27:19.987Z,92.54
2022-07-26T07:28:22.990Z,92.33
2022-07-26T07:29:27.025Z,91.50
2022-07-26T07:30:31.341Z,91.19
2022-07-26T07:31:48.169Z,91.39
2022-07-26T07:32:52.710Z,90.81
2022-07-26T07:33:54.897Z,90.40
2022-07-26T07:34:58.196Z,90.44
2022-07-26T07:36:01.336Z,90.50
2022-07-26T07:37:04.790Z,90.49
2022-07-26T07:38:11.966Z,90.43
2022-07-26T07:39:17.432Z,90.70
2022-07-26T07:40:20.794Z,91.00
2022-07-26T07:41:23.976Z,90.98
2022-07-26T07:42:26.065Z,91.30
2022-07-26T07:43:29.266Z,91.69
2022-07-26T07:44:31.636Z,92.07
2022-07-26T07:45:34.914Z,92.05
2022-07-26T07:46:36.973Z,92.21
2022-07-26T07:47:40.176Z,92.48
2022-07-26T07:48:47.386Z,92.47
2022-07-26T07:49:51.061Z,92.69
2022-07-26T07:50:54.346Z,92.45
2022-07-26T07:51:56.439Z,92.63
2022-07-26T07:52:59.469Z,92.58
2022-07-26T07:54:06.402Z,92.80
2022-07-26T07:55:36.635Z,92.52
2022-07-26T07:56:34.457Z,92.66
2022-07-26T07:57:37.012Z,92.29
2022-07-26T07:58:40.428Z,92.40
2022-07-26T07:59:43.887Z,91.99
2022-07-26T08:00:48.089Z,91.76
2022-07-26T08:01:52.112Z,91.66
2022-07-26T08:02:54.741Z,91.29
2022-07-26T08:03:57.908Z,91.45
2022-07-26T08:05:11.442Z,90.48
2022-07-26T08:06:18.676Z,90.73
2022-07-26T08:07:21.828Z,90.54
2022-07-26T08:08:25.578Z,90.26
2022-07-26T08:09:29.879Z,89.87
2022-07-26T08:10:41.748Z,89.91
2022-07-26T08:11:54.781Z,89.54
2022-07-26T08:12:56.891Z,89.49
2022-07-26T08:14:00.063Z,89.54
2022-07-26T08:15:02.606Z,89.45
2022-07-26T08:16:10.980Z,89.25
2022-07-26T08:17:14.233Z,88.79
2022-07-26T08:18:16.709Z,88.00
2022-07-26T08:19:20.018Z,87.42
2022-07-26T08:20:25.973Z,87.04
2022-07-26T08:21:29.139Z,86.03
2022-07-26T08:22:32.569Z,85.93
2022-07-26T08:23:35.981Z,85.54
2022-07-26T08:24:40.646Z,85.69
2022-07-26T08:25:55.639Z,85.47
2022-07-26T08:27:00.375Z,85.08
2022-07-26T08:28:04.116Z,85.39
2022-07-26T08:29:07.265Z,85.46
2022-07-26T08:30:10.530Z,85.47
2022-07-26T08:31:14.235Z,84.90
2022-07-26T08:32:17.514Z,85.06
2022-07-26T08:33:19.599Z,84.66
2022-07-26T08:34:22.730Z,84.73
2022-07-26T08:35:24.911Z,85.03
2022-07-26T08:36:32.366Z,85.31
2022-07-26T08:37:36.158Z,84.90
2022-07-26T08:38:38.856Z,84.76
2022-07-26T08:39:43.326Z,85.16
2022-07-26T08:40:45.630Z,85.37
2022-07-26T08:41:48.912Z,85.41
2022-07-26T08:42:52.664Z,84.77
2022-07-26T08:43:55.975Z,84.62
2022-07-26T08:44:59.240Z,84.69
2022-07-26T08:46:03.280Z,84.74
2022-07-26T08:47:06.520Z,83.86
2022-07-26T08:48:17.789Z,82.32
2022-07-26T08:49:21.744Z,81.93
2022-07-26T08:50:24.541Z,80.89
2022-07-26T08:51:27.929Z,78.17
2022-07-26T08:52:31.111Z,78.27
2022-07-26T08:53:35.082Z,78.32
2022-07-26T08:54:37.692Z,78.15
2022-07-26T08:56:06.037Z,77.88
2022-07-26T08:57:05.300Z,77.29
2022-07-26T08:58:08.520Z,76.82
2022-07-26T08:59:20.623Z,77.30
2022-07-26T09:00:26.975Z,77.69
2022-07-26T09:01:29.380Z,78.49
2022-07-26T09:02:41.136Z,79.03
2022-07-26T09:03:45.089Z,79.44
2022-07-26T09:04:48.716Z,79.97
2022-07-26T09:05:50.768Z,80.57
2022-07-26T09:06:59.874Z,81.04
2022-07-26T09:08:23.625Z,81.34
2022-07-26T09:09:25.907Z,81.84
2022-07-26T09:10:29.263Z,82.15
2022-07-26T09:11:33.714Z,82.39
2022-07-26T09:12:37.781Z,81.76
2022-07-26T09:13:51.980Z,81.19
2022-07-26T09:14:55.659Z,81.17
2022-07-26T09:16:13.965Z,80.72
2022-07-26T09:17:18.801Z,80.18
2022-07-26T09:18:28.901Z,80.10
2022-07-26T09:19:32.063Z,80.47
2022-07-26T09:20:35.158Z,80.55
2022-07-26T09:21:37.194Z,80.43
2022-07-26T09:22:57.007Z,80.09
2022-07-26T09:23:59.921Z,79.75
2022-07-26T09:25:02.923Z,79.28
2022-07-26T09:26:05.306Z,79.25
2022-07-26T09:27:12.185Z,76.90
2022-07-26T09:28:23.919Z,76.21
2022-07-26T09:29:26.063Z,75.69
2022-07-26T09:30:30.223Z,73.46
2022-07-26T09:31:32.747Z,73.56
2022-07-26T09:32:36.895Z,72.57
2022-07-26T09:33:46.329Z,71.84
2022-07-26T09:34:54.339Z,71.81
2022-07-26T09:36:01.588Z,71.04
2022-07-26T09:37:07.377Z,71.34
2022-07-26T09:38:15.395Z,71.49
2022-07-26T09:39:17.648Z,71.79
2022-07-26T09:40:33.377Z,71.78
2022-07-26T09:41:36.993Z,71.81
2022-07-26T09:42:54.406Z,72.24
2022-07-26T09:44:00.138Z,71.99
2022-07-26T09:45:02.650Z,71.67
2022-07-26T09:46:07.350Z,70.80
2022-07-26T09:47:09.818Z,68.74
2022-07-26T09:48:13.346Z,69.51
2022-07-26T09:49:20.078Z,69.05
2022-07-26T09:50:24.818Z,69.12
2022-07-26T09:51:40.484Z,68.71
2022-07-26T09:52:59.337Z,68.53
2022-07-26T09:54:02.371Z,69.07
2022-07-26T09:55:07.466Z,69.34
2022-07-26T09:56:09.517Z,69.88
2022-07-26T09:57:13.144Z,69.99
2022-07-26T09:58:19.155Z,69.84
2022-07-26T09:59:23.257Z,69.38
2022-07-26T10:00:26.739Z,69.85
2022-07-26T10:01:30.046Z,69.09
2022-07-26T10:02:33.008Z,68.97
2022-07-26T10:03:36.894Z,68.87
2022-07-26T10:04:39.212Z,68.22
2022-07-26T10:05:42.856Z,67.97
2022-07-26T10:06:45.286Z,67.62
2022-07-26T10:07:49.359Z,67.44
2022-07-26T10:08:52.008Z,67.05
2022-07-26T10:09:59.904Z,66.79
2022-07-26T10:11:05.442Z,65.84
2022-07-26T10:12:10.269Z,65.45
2022-07-26T10:13:12.973Z,64.04
2022-07-26T10:14:36.439Z,63.47
2022-07-26T10:15:44.490Z,63.78
2022-07-26T10:16:49.415Z,63.20
2022-07-26T10:17:54.207Z,63.46
2022-07-26T10:18:57.989Z,63.25
2022-07-26T10:20:01.925Z,63.12
2022-07-26T10:21:20.505Z,62.86
2022-07-26T10:22:23.486Z,62.86
2022-07-26T10:23:51.168Z,63.02
2022-07-26T10:24:58.010Z,62.90
2022-07-26T10:26:02.333Z,62.86
2022-07-26T10:27:06.171Z,62.96
2022-07-26T10:28:24.102Z,62.55
2022-07-26T10:29:30.400Z,62.54
2022-07-26T10:30:35.299Z,62.42
2022-07-26T10:31:38.821Z,62.60
2022-07-26T10:32:43.457Z,62.66
2022-07-26T10:33:51.501Z,62.61
2022-07-26T10:34:56.912Z,62.24
2022-07-26T10:35:59.343Z,62.25
2022-07-26T10:37:05.466Z,61.32
2022-07-26T10:38:09.777Z,61.19
2022-07-26T10:39:15.572Z,61.10
2022-07-26T10:40:21.053Z,59.46
2022-07-26T10:41:33.147Z,59.59
2022-07-26T10:42:46.153Z,59.53
2022-07-26T10:44:13.222Z,59.92
2022-07-26T10:45:24.345Z,59.55
2022-07-26T10:46:29.696Z,59.63
2022-07-26T10:47:35.369Z,59.03
2022-07-26T10:48:55.832Z,59.30
2022-07-26T10:50:00.898Z,59.26
2022-07-26T10:51:29.722Z,59.71
2022-07-26T10:52:34.008Z,59.94
2022-07-26T10:53:37.271Z,60.68
2022-07-26T10:55:09.005Z,60.74
2022-07-26T10:56:12.071Z,61.04
2022-07-26T10:57:14.111Z,61.01
2022-07-26T10:58:18.529Z,60.89
2022-07-26T10:59:54.422Z,60.68
2022-07-26T11:00:59.315Z,60.42
2022-07-26T11:02:02.171Z,59.93
2022-07-26T11:03:05.484Z,59.78
2022-07-26T11:04:19.031Z,60.02
2022-07-26T11:05:23.109Z,60.15
2022-07-26T11:06:31.147Z,60.04
2022-07-26T11:07:33.251Z,60.09
2022-07-26T11:08:36.940Z,60.22
2022-07-26T11:09:39.571Z,60.10
2022-07-26T11:10:44.027Z,60.06
2022-07-26T11:11:47.311Z,60.64
2022-07-26T11:12:59.852Z,60.53
2022-07-26T11:14:07.966Z,60.04
2022-07-26T11:15:17.961Z,59.04
2022-07-26T11:16:23.415Z,59.03
2022-07-26T11:17:29.473Z,58.62
2022-07-26T11:18:35.338Z,58.96
2022-07-26T11:19:39.893Z,59.20
2022-07-26T11:20:45.557Z,58.84
2022-07-26T11:21:56.559Z,59.37
2022-07-26T11:22:58.728Z,59.48
2022-07-26T11:24:04.426Z,59.34
2022-07-26T11:25:06.996Z,59.55
2022-07-26T11:26:16.211Z,59.10
2022-07-26T11:27:19.225Z,58.33
2022-07-26T11:28:23.593Z,58.10
2022-07-26T11:29:38.690Z,57.44
2022-07-26T11:30:56.257Z,58.12
2022-07-26T11:32:04.804Z,57.79
2022-07-26T11:33:18.777Z,58.08
2022-07-26T11:34:25.296Z,57.71
2022-07-26T11:35:30.128Z,57.56
2022-07-26T11:36:36.193Z,57.13
2022-07-26T11:37:40.725Z,57.06
2022-07-26T11:38:48.364Z,56.44
2022-07-26T11:39:51.433Z,56.39
2022-07-26T11:40:53.737Z,56.19
2022-07-26T11:41:59.254Z,55.69
2022-07-26T11:43:01.405Z,55.19
2022-07-26T11:44:05.969Z,54.89
2022-07-26T11:45:10.452Z,54.41
2022-07-26T11:46:13.566Z,54.72
2022-07-26T11:47:19.967Z,54.56
2022-07-26T11:48:22.108Z,54.98
2022-07-26T11:49:51.726Z,55.69
2022-07-26T11:50:49.552Z,55.21
2022-07-26T11:51:54.981Z,55.29
2022-07-26T11:52:58.501Z,55.01
2022-07-26T11:54:04.834Z,53.46
2022-07-26T11:55:09.075Z,53.45
2022-07-26T11:56:16.025Z,52.90
2022-07-26T11:57:20.619Z,52.27
2022-07-26T11:58:22.769Z,51.96
2022-07-26T11:59:28.366Z,51.06
2022-07-26T12:00:30.698Z,51.49
2022-07-26T12:01:33.951Z,50.77
2022-07-26T12:02:37.499Z,50.79
2022-07-26T12:03:41.704Z,50.66
2022-07-26T12:04:45.905Z,50.18
2022-07-26T12:06:02.604Z,49.93
2022-07-26T12:07:11.278Z,49.83
2022-07-26T12:08:14.781Z,49.60
2022-07-26T12:09:34.120Z,48.54
2022-07-26T12:10:37.239Z,49.09
2022-07-26T12:11:41.847Z,48.71
2022-07-26T12:12:45.005Z,48.35
2022-07-26T12:13:59.120Z,47.30
2022-07-26T12:15:04.642Z,47.48
2022-07-26T12:16:07.748Z,47.60
2022-07-26T12:17:15.095Z,47.40
2022-07-26T12:18:25.165Z,47.89
2022-07-26T12:20:32.141Z,46.78
2022-07-26T12:21:48.203Z,47.25
2022-07-26T12:22:56.067Z,47.55
2022-07-26T12:23:59.665Z,48.27
2022-07-26T12:25:03.205Z,48.54
2022-07-26T12:26:19.014Z,48.51
2022-07-26T12:27:24.301Z,48.75
2022-07-26T12:28:41.436Z,48.48
2022-07-26T12:29:46.418Z,47.69
2022-07-26T12:30:49.248Z,47.58
2022-07-26T12:32:12.770Z,46.68
2022-07-26T12:33:14.988Z,47.17
2022-07-26T12:34:21.471Z,46.76
2022-07-26T12:35:32.312Z,46.86
2022-07-26T12:36:34.473Z,46.37
2022-07-26T12:37:41.018Z,46.16
2022-07-26T12:38:44.127Z,46.13
2022-07-26T12:40:08.093Z,46.24
2022-07-26T12:41:10.804Z,46.60
2022-07-26T12:42:33.021Z,48.51
2022-07-26T12:43:42.058Z,47.94
2022-07-26T12:44:44.310Z,47.96
2022-07-26T12:45:47.371Z,48.35
2022-07-26T12:46:49.538Z,47.66
2022-07-26T12:47:54.568Z,48.06
2022-07-26T12:49:00.205Z,48.41
2022-07-26T12:50:03.932Z,48.44
2022-07-26T12:51:07.525Z,48.43
2022-07-26T12:52:09.767Z,48.42
2022-07-26T12:53:13.070Z,48.83
2022-07-26T12:54:15.638Z,49.75
2022-07-26T12:55:22.210Z,49.13
2022-07-26T12:56:24.307Z,48.43
2022-07-26T12:57:27.802Z,48.58
2022-07-26T12:58:30.443Z,48.65
2022-07-26T12:59:33.734Z,48.76
2022-07-26T13:00:37.497Z,47.83
2022-07-26T13:01:39.761Z,48.88
2022-07-26T13:02:44.604Z,47.94
2022-07-26T13:03:47.403Z,48.45
2022-07-26T13:04:54.339Z,48.23
2022-07-26T13:06:00.222Z,48.15
2022-07-26T13:07:02.666Z,47.99
2022-07-26T13:08:06.155Z,47.92
2022-07-26T13:09:08.505Z,48.12
2022-07-26T13:11:37.044Z,48.61
2022-07-26T13:12:40.296Z,48.54
2022-07-26T13:13:42.333Z,48.92
2022-07-26T13:14:45.566Z,48.90
2022-07-26T13:15:47.877Z,49.04
2022-07-26T13:16:51.039Z,48.96
2022-07-26T13:17:54.222Z,48.59
2022-07-26T13:18:58.044Z,48.30
2022-07-26T13:20:01.236Z,46.70
2022-07-26T13:21:03.656Z,46.87
2022-07-26T13:22:08.613Z,46.54
2022-07-26T13:23:12.765Z,46.18
2022-07-26T13:24:18.910Z,45.88
2022-07-26T13:25:23.451Z,45.81
2022-07-26T13:26:28.995Z,46.49
2022-07-26T13:27:36.677Z,46.59
2022-07-26T13:28:40.640Z,47.39
2022-07-26T13:29:43.740Z,47.67
2022-07-26T13:30:45.901Z,48.15
2022-07-26T13:31:50.938Z,48.49
2022-07-26T13:32:53.928Z,48.98
2022-07-26T13:33:56.939Z,49.46
2022-07-26T13:34:59.979Z,49.53
2022-07-26T13:36:02.212Z,49.89
2022-07-26T13:37:08.434Z,50.02
2022-07-26T13:38:10.932Z,49.93
2022-07-26T13:39:14.063Z,49.49
2022-07-26T13:40:16.294Z,48.63
2022-07-26T13:41:19.345Z,48.30
2022-07-26T13:42:22.354Z,47.36
2022-07-26T13:43:25.808Z,46.13
2022-07-26T13:44:28.912Z,44.94
2022-07-26T13:45:30.968Z,45.13
2022-07-26T13:46:34.149Z,44.73
2022-07-26T13:47:36.557Z,44.70
2022-07-26T13:48:52.763Z,45.17
2022-07-26T13:50:02.810Z,44.35
2022-07-26T13:51:05.597Z,44.80
2022-07-26T13:52:12.155Z,44.69
2022-07-26T13:53:18.697Z,44.45
2022-07-26T13:54:22.082Z,44.67
2022-07-26T13:55:25.512Z,44.39